Time;durP1;ratioP1;P1;durP2;ratioP2;P2;SDS_P1;SDS_P2;PMS_P1;PMS_P2;Temp;Humidity;BMP_temperature;BMP_pressure;BME280_temperature;BME280_humidity;BME280_pressure;Samples;Min_cycle;Max_cycle;Signal;HPM_P1;HPM_P2
2023/03/24 00:02:15;;;;;;;5.75;3.20;;;;;;;14.13;53.55;97102.59;10176358;29;20054;-76
2023/03/24 00:07:37;;;;;;;6.28;3.35;;;;;;;14.02;53.44;97093.72;10191723;29;20044;-75
2023/03/24 00:13:00;;;;;;;5.88;3.63;;;;;;;14.01;54.03;97094.38;10208971;28;20054;-75
2023/03/24 00:18:21;;;;;;;7.55;3.58;;;;;;;14.00;53.81;97087.31;10226919;28;20106;-75
2023/03/24 00:23:42;;;;;;;7.28;3.70;;;;;;;14.00;53.97;97076.81;10222266;28;20043;-76
2023/03/24 00:29:07;;;;;;;7.43;3.40;;;;;;;14.00;54.25;97081.69;10200828;29;20052;-75
2023/03/24 00:34:28;;;;;;;5.22;2.90;;;;;;;13.98;54.16;97075.97;10174692;29;20447;-75
2023/03/24 00:39:49;;;;;;;6.22;2.97;;;;;;;13.99;54.27;97069.75;10200699;29;20072;-75
2023/03/24 00:45:18;;;;;;;4.40;3.03;;;;;;;13.99;54.29;97057.78;10187384;29;20406;-75
2023/03/24 00:50:48;;;;;;;5.78;2.80;;;;;;;13.97;54.30;97054.88;10175917;29;20059;-75
2023/03/24 00:56:14;;;;;;;5.82;2.83;;;;;;;13.92;54.71;97044.88;10174796;29;20079;-76
2023/03/24 01:01:36;;;;;;;9.20;3.22;;;;;;;13.86;55.07;97050.94;10187615;29;20063;-75
2023/03/24 01:06:57;;;;;;;11.88;3.70;;;;;;;13.79;55.37;97045.69;10187006;29;20059;-75
2023/03/24 01:12:18;;;;;;;8.68;3.75;;;;;;;13.73;55.25;97035.66;10186475;29;20075;-75
2023/03/24 01:17:39;;;;;;;6.68;3.08;;;;;;;13.72;55.04;97027.88;10173853;29;20414;-75
2023/03/24 01:23:01;;;;;;;4.85;2.38;;;;;;;13.67;54.86;97041.00;10186580;29;20095;-76
2023/03/24 01:28:23;;;;;;;7.05;2.70;;;;;;;13.63;55.80;97034.50;10187215;29;20050;-75
2023/03/24 01:33:45;;;;;;;4.47;2.88;;;;;;;13.60;55.42;97027.31;10179798;29;20047;-75
2023/03/24 01:39:05;;;;;;;5.68;2.72;;;;;;;13.59;55.61;97023.06;10206840;29;20154;-75
2023/03/24 01:44:32;;;;;;;5.40;2.25;;;;;;;13.53;55.90;97008.81;10193629;29;20506;-75
2023/03/24 01:49:58;;;;;;;4.70;2.58;;;;;;;13.55;55.91;97006.81;10180913;29;20052;-75
2023/03/24 01:55:19;;;;;;;6.07;2.47;;;;;;;13.51;55.94;97000.28;10193507;29;20148;-75
2023/03/24 02:00:41;;;;;;;5.45;2.30;;;;;;;13.42;55.83;97002.75;10192817;29;20056;-75
2023/03/24 02:06:25;;;;;;;4.07;2.33;;;;;;;13.40;56.27;96993.50;10209148;29;20497;-76
2023/03/24 02:11:49;;;;;;;4.38;2.38;;;;;;;13.39;56.61;96989.97;10193546;29;20127;-75
2023/03/24 02:17:22;;;;;;;5.20;2.70;;;;;;;13.35;57.41;96984.22;10192545;29;20052;-76
2023/03/24 02:23:14;;;;;;;6.90;2.33;;;;;;;13.33;57.07;96980.59;10205699;29;20514;-75
2023/03/24 02:28:53;;;;;;;6.15;2.42;;;;;;;13.29;57.76;96975.53;10205802;29;20071;-75
2023/03/24 02:35:09;;;;;;;6.57;2.60;;;;;;;13.26;57.46;96971.19;10192746;29;20044;-76
2023/03/24 02:40:42;;;;;;;4.97;2.40;;;;;;;13.25;57.29;96963.41;10187099;29;20610;-76
2023/03/24 02:46:12;;;;;;;4.63;2.08;;;;;;;13.24;57.23;96956.38;10180163;29;20047;-75
2023/03/24 02:51:57;;;;;;;3.45;2.22;;;;;;;13.13;58.18;96957.97;10183917;29;20609;-76
2023/03/24 02:57:45;;;;;;;6.88;2.35;;;;;;;13.11;58.16;96960.66;10177192;29;20064;-75
2023/03/24 03:03:29;;;;;;;6.55;2.53;;;;;;;13.08;57.98;96961.94;10168386;29;20064;-75
2023/03/24 03:08:51;;;;;;;3.83;2.10;;;;;;;13.03;57.99;96961.03;10138431;29;20450;-75
2023/03/24 03:14:39;;;;;;;4.75;2.45;;;;;;;12.95;58.48;96960.66;10165017;29;20043;-76
2023/03/24 03:20:07;;;;;;;3.97;2.72;;;;;;;12.86;58.65;96965.16;10193345;29;20055;-76
2023/03/24 03:25:31;;;;;;;5.55;2.42;;;;;;;12.84;59.05;96961.56;10190983;29;20078;-75
2023/03/24 03:30:53;;;;;;;3.15;2.08;;;;;;;12.93;59.25;96954.94;10176445;29;20075;-76
2023/03/24 03:36:19;;;;;;;4.68;1.85;;;;;;;13.01;59.23;96943.41;10176184;29;20126;-76
2023/03/24 03:41:39;;;;;;;3.90;1.85;;;;;;;13.06;59.59;96939.44;10189179;29;20127;-75
2023/03/24 03:47:00;;;;;;;5.03;2.63;;;;;;;13.12;59.34;96951.66;10188351;29;20043;-75
2023/03/24 03:52:31;;;;;;;3.55;1.80;;;;;;;13.12;59.29;96945.28;10190807;29;20615;-75
2023/03/24 03:57:53;;;;;;;3.65;1.88;;;;;;;13.13;59.19;96952.38;10186865;29;20497;-75
2023/03/24 04:03:43;;;;;;;3.55;2.00;;;;;;;13.16;59.83;96956.69;10172018;29;20051;-75
2023/03/24 04:09:12;;;;;;;3.08;1.98;;;;;;;13.14;59.64;96959.41;10240714;28;20054;-75
2023/03/24 04:15:00;;;;;;;3.45;1.67;;;;;;;13.19;59.70;96949.84;10227806;28;20450;-75
2023/03/24 04:20:47;;;;;;;2.88;1.50;;;;;;;13.21;59.90;96946.41;10254920;29;20118;-75
2023/03/24 04:26:26;;;;;;;3.38;1.80;;;;;;;13.22;59.89;96934.59;10214928;28;20071;-75
2023/03/24 04:31:57;;;;;;;3.15;1.58;;;;;;;13.23;59.62;96930.44;10203493;29;20144;-75
2023/03/24 04:37:27;;;;;;;3.83;1.60;;;;;;;13.25;59.92;96924.91;10240305;28;20047;-75
2023/03/24 04:42:51;;;;;;;3.75;1.25;;;;;;;13.31;59.88;96922.34;10214973;28;20118;-75
2023/03/24 04:48:17;;;;;;;2.90;1.40;;;;;;;13.30;59.76;96925.78;10202461;29;20110;-75
2023/03/24 04:53:47;;;;;;;3.00;1.23;;;;;;;13.28;59.82;96918.03;10217234;29;20064;-75
2023/03/24 04:59:08;;;;;;;2.20;1.10;;;;;;;13.32;59.88;96918.22;10174661;29;20501;-75
2023/03/24 05:04:35;;;;;;;4.20;1.37;;;;;;;13.36;59.62;96907.16;10187497;29;20071;-76
2023/03/24 05:10:10;;;;;;;2.75;1.05;;;;;;;13.33;59.73;96891.63;10189073;29;20075;-76
2023/03/24 05:15:37;;;;;;;4.88;1.33;;;;;;;13.28;59.89;96887.19;10181281;29;20051;-76
2023/03/24 05:21:12;;;;;;;4.20;1.17;;;;;;;13.23;59.79;96882.78;10145395;29;20554;-75
2023/03/24 05:26:33;;;;;;;2.95;1.10;;;;;;;13.22;60.56;96872.94;10129357;29;20508;-75
2023/03/24 05:32:20;;;;;;;4.07;1.10;;;;;;;13.28;60.00;96872.47;10161344;29;20135;-76
2023/03/24 05:37:41;;;;;;;2.22;1.17;;;;;;;13.35;59.85;96860.16;10139745;29;20484;-75
2023/03/24 05:43:02;;;;;;;3.08;1.17;;;;;;;13.37;59.60;96863.03;10141000;29;20044;-75
2023/03/24 05:48:27;;;;;;;4.28;1.48;;;;;;;13.36;60.02;96861.59;10141925;29;20087;-76
2023/03/24 05:54:01;;;;;;;2.00;1.20;;;;;;;13.42;60.25;96859.78;10155720;29;20060;-76
2023/03/24 05:59:34;;;;;;;3.78;1.73;;;;;;;13.49;60.07;96863.56;10157135;29;20143;-76
2023/03/24 06:05:22;;;;;;;3.72;0.95;;;;;;;13.58;60.17;96861.81;10156886;29;20526;-75
2023/03/24 06:10:43;;;;;;;4.65;1.50;;;;;;;13.61;59.70;96850.06;10153992;29;20468;-75
2023/03/24 06:16:05;;;;;;;3.88;1.35;;;;;;;13.86;59.92;96848.22;10141023;29;20044;-75
2023/03/24 06:21:34;;;;;;;3.03;1.45;;;;;;;14.13;59.63;96841.59;10152358;29;20079;-76
2023/03/24 06:27:00;;;;;;;4.15;1.48;;;;;;;14.19;58.97;96834.13;10165141;29;20079;-76
2023/03/24 06:32:25;;;;;;;2.45;1.15;;;;;;;14.14;58.69;96832.53;10141657;29;20083;-76
2023/03/24 06:37:46;;;;;;;4.80;1.40;;;;;;;14.15;58.80;96833.97;10152726;29;20111;-75
2023/03/24 06:43:08;;;;;;;2.60;1.40;;;;;;;14.16;58.40;96831.88;10140418;29;20043;-75
2023/03/24 06:48:32;;;;;;;3.73;1.40;;;;;;;14.19;58.37;96844.66;10190907;29;20050;-75
2023/03/24 06:53:58;;;;;;;4.28;1.50;;;;;;;14.13;58.32;96844.41;10166613;29;20055;-75
2023/03/24 06:59:22;;;;;;;6.18;1.50;;;;;;;14.16;58.00;96834.69;10141966;29;20075;-76
2023/03/24 07:04:44;;;;;;;;;;;;;;;14.29;57.87;96842.22;10155416;29;20064;-77
2023/03/24 07:10:17;;;;;;;10.80;1.90;;;;;;;14.50;57.64;96838.13;10155219;29;19930;-76
2023/03/24 07:15:38;;;;;;;4.00;1.38;;;;;;;14.84;57.49;96841.47;10154642;29;20044;-76
2023/03/24 07:20:59;;;;;;;4.32;1.15;;;;;;;15.21;56.80;96834.38;10153937;29;20063;-76
2023/03/24 07:26:21;;;;;;;6.10;1.00;;;;;;;15.59;55.50;96832.88;10153796;29;20044;-76
2023/03/24 07:31:57;;;;;;;4.05;1.40;;;;;;;15.85;54.14;96829.50;10143613;29;20079;-76
2023/03/24 07:37:19;;;;;;;4.90;1.08;;;;;;;16.19;53.34;96824.97;10140345;29;20044;-76
2023/03/24 07:42:41;;;;;;;3.03;1.30;;;;;;;16.35;52.74;96819.13;10139929;29;20052;-76
2023/03/24 07:48:20;;;;;;;3.15;1.10;;;;;;;16.62;52.32;96812.16;10158118;29;20052;-76
2023/03/24 07:53:44;;;;;;;5.03;1.17;;;;;;;16.80;50.94;96818.38;10139794;29;20059;-76
2023/03/24 07:59:08;;;;;;;2.42;1.02;;;;;;;16.89;50.54;96824.94;10164366;29;20040;-76
2023/03/24 08:04:55;;;;;;;3.00;1.20;;;;;;;16.94;49.94;96828.59;10162536;29;20115;-75
2023/03/24 08:10:36;;;;;;;1.90;0.95;;;;;;;16.88;49.79;96821.38;10154443;29;20051;-76
2023/03/24 08:15:57;;;;;;;2.45;1.17;;;;;;;17.12;49.43;96835.44;10149100;29;20481;-75
2023/03/24 08:21:17;;;;;;;3.22;0.85;;;;;;;17.10;48.72;96829.03;10148614;29;20498;-75
2023/03/24 08:26:38;;;;;;;6.20;1.00;;;;;;;17.00;48.71;96823.84;10149027;29;20507;-76
2023/03/24 08:32:00;;;;;;;3.50;1.15;;;;;;;17.04;48.12;96818.31;10148749;29;20056;-75
2023/03/24 08:37:20;;;;;;;4.53;0.90;;;;;;;17.46;48.28;96815.91;10148586;29;20071;-75
2023/03/24 08:42:41;;;;;;;3.47;0.88;;;;;;;19.16;47.04;96820.47;10152193;29;20040;-75
2023/03/24 08:48:04;;;;;;;1.98;0.65;;;;;;;21.13;42.82;96815.06;10155465;29;20044;-76
2023/03/24 08:53:25;;;;;;;3.53;0.90;;;;;;;21.67;40.16;96800.00;10142682;29;20048;-75
2023/03/24 08:58:47;;;;;;;7.22;0.80;;;;;;;21.63;39.22;96799.25;10220003;29;20574;-75
2023/03/24 09:04:08;;;;;;;3.53;0.75;;;;;;;21.06;38.94;96792.97;10181268;29;20044;-75
2023/03/24 09:09:29;;;;;;;1.92;0.73;;;;;;;20.74;39.18;96781.94;10194349;29;20455;-75
2023/03/24 09:14:51;;;;;;;5.07;0.73;;;;;;;21.47;39.36;96782.06;10193887;29;20119;-75
2023/03/24 09:20:13;;;;;;;1.70;0.63;;;;;;;22.43;37.32;96775.00;10180146;29;20075;-75
2023/03/24 09:25:33;;;;;;;2.72;0.73;;;;;;;21.86;36.81;96774.59;10167218;29;20043;-75
2023/03/24 09:30:58;;;;;;;4.18;0.77;;;;;;;23.34;35.05;96786.06;10193114;29;20491;-75
2023/03/24 09:36:19;;;;;;;1.48;0.68;;;;;;;23.83;34.92;96769.03;10179802;29;20063;-75
2023/03/24 09:41:43;;;;;;;1.83;0.60;;;;;;;28.06;29.72;96773.50;10180368;29;20071;-75
2023/03/24 09:47:11;;;;;;;1.42;0.50;;;;;;;25.77;28.65;96769.06;10166562;29;20087;-75
2023/03/24 09:52:39;;;;;;;1.77;0.75;;;;;;;23.81;30.57;96769.03;10166591;29;20052;-75
2023/03/24 09:58:03;;;;;;;1.20;0.40;;;;;;;22.73;32.17;96774.44;10165779;29;20055;-75
2023/03/24 10:03:25;;;;;;;3.00;0.60;;;;;;;21.66;33.82;96769.47;10177712;29;20076;-75
2023/03/24 10:08:50;;;;;;;3.90;0.65;;;;;;;21.24;34.43;96786.78;10175787;29;20104;-76
2023/03/24 10:14:32;;;;;;;6.47;0.82;;;;;;;21.43;36.23;96765.72;10164853;29;20047;-75
2023/03/24 10:20:12;;;;;;;3.45;0.70;;;;;;;20.78;36.71;96779.88;10204140;29;20056;-75
2023/03/24 10:25:33;;;;;;;2.17;0.70;;;;;;;19.86;37.80;96780.69;10177983;29;20058;-75
2023/03/24 10:30:55;;;;;;;1.70;0.52;;;;;;;19.36;39.07;96791.84;10204785;29;20483;-75
2023/03/24 10:36:17;;;;;;;2.83;0.70;;;;;;;18.99;40.21;96796.09;10177624;29;20075;-77
2023/03/24 10:41:37;;;;;;;3.72;0.68;;;;;;;18.75;41.59;96810.47;10177317;29;20044;-76
2023/03/24 10:47:01;;;;;;;2.45;0.88;;;;;;;18.46;42.33;96807.00;10176152;29;20063;-76
2023/03/24 10:52:23;;;;;;;2.45;0.50;;;;;;;18.40;43.51;96821.00;10165836;29;20110;-75
2023/03/24 10:57:46;;;;;;;1.70;0.68;;;;;;;18.60;43.64;96807.31;10175015;29;20103;-75
2023/03/24 11:03:11;;;;;;;4.38;0.82;;;;;;;19.71;43.20;96799.56;10167169;29;20060;-74
2023/03/24 11:08:35;;;;;;;3.70;0.70;;;;;;;22.76;38.33;96795.78;10155801;29;20044;-75
2023/03/24 11:13:57;;;;;;;1.52;0.82;;;;;;;22.35;37.64;96809.06;10154988;29;20055;-74
2023/03/24 11:19:22;;;;;;;2.13;0.80;;;;;;;21.24;38.92;96812.31;10182083;29;20075;-75
2023/03/24 11:24:44;;;;;;;3.92;0.70;;;;;;;20.91;39.63;96799.88;10158083;29;20082;-75
2023/03/24 11:30:11;;;;;;;1.45;0.82;;;;;;;20.83;39.71;96806.88;10152256;29;20123;-75
2023/03/24 11:35:32;;;;;;;3.20;0.80;;;;;;;20.41;40.35;96794.94;10181313;29;20096;-75
2023/03/24 11:41:06;;;;;;;1.50;0.80;;;;;;;20.01;40.65;96809.97;10190617;29;20050;-75
2023/03/24 11:46:27;;;;;;;1.77;0.95;;;;;;;19.61;41.29;96812.84;10175931;29;20533;-75
2023/03/24 11:51:49;;;;;;;3.80;1.00;;;;;;;18.86;43.26;96812.81;10175063;29;20074;-75
2023/03/24 11:57:12;;;;;;;1.98;0.90;;;;;;;18.60;44.10;96812.25;10187831;29;20139;-74
2023/03/24 12:03:04;;;;;;;2.95;1.33;;;;;;;18.71;44.24;96818.84;10187666;29;20071;-75
2023/03/24 12:08:47;;;;;;;2.92;0.80;;;;;;;18.71;44.48;96799.06;10171147;29;20078;-75
2023/03/24 12:14:08;;;;;;;2.88;1.00;;;;;;;18.54;44.94;96790.25;10180790;29;20123;-75
2023/03/24 12:19:37;;;;;;;3.30;0.88;;;;;;;18.21;44.98;96788.78;10178426;29;20060;-75
2023/03/24 12:25:10;;;;;;;4.00;1.05;;;;;;;17.83;46.10;96785.06;10169237;29;20535;-75
2023/03/24 12:30:55;;;;;;;2.20;0.90;;;;;;;17.61;46.36;96780.31;10195632;29;20145;-75
2023/03/24 12:36:22;;;;;;;6.00;0.98;;;;;;;17.56;46.81;96790.03;10179837;29;20539;-75
2023/03/24 12:41:59;;;;;;;2.05;0.80;;;;;;;17.80;47.41;96781.50;10174907;29;20506;-75
2023/03/24 12:47:57;;;;;;;3.40;0.85;;;;;;;18.09;46.79;96771.59;10180082;29;20179;-75
2023/03/24 12:53:57;;;;;;;2.35;0.90;;;;;;;18.16;46.63;96772.44;10176441;29;20048;-75
2023/03/24 12:59:28;;;;;;;4.82;1.20;;;;;;;17.80;47.79;96783.59;10137423;29;20083;-76
2023/03/24 13:04:49;;;;;;;3.13;1.15;;;;;;;17.32;47.95;96804.25;10153907;29;20614;-75
2023/03/24 13:10:21;;;;;;;2.58;0.90;;;;;;;16.99;49.47;96813.97;10155525;29;20451;-76
2023/03/24 13:16:00;;;;;;;2.73;0.57;;;;;;;16.95;49.49;96782.09;10153642;29;20048;-75
2023/03/24 13:21:23;;;;;;;1.55;0.50;;;;;;;17.51;48.93;96784.97;10161736;29;20472;-76
2023/03/24 13:27:19;;;;;;;1.30;0.50;;;;;;;18.13;47.79;96780.13;10153025;29;20406;-75
2023/03/24 13:32:51;;;;;;;1.42;0.60;;;;;;;18.08;46.82;96777.91;10198799;29;20067;-76
2023/03/24 13:38:19;;;;;;;4.90;0.50;;;;;;;17.70;47.19;96762.22;10188645;29;20115;-75
2023/03/24 13:43:49;;;;;;;1.27;0.50;;;;;;;17.72;47.67;96765.09;10175515;29;20364;-76
2023/03/24 13:49:13;;;;;;;2.47;0.60;;;;;;;17.78;47.76;96763.81;10170578;29;20126;-75
2023/03/24 13:54:35;;;;;;;1.77;0.65;;;;;;;17.63;48.11;96766.25;10157931;29;20147;-76
2023/03/24 14:00:21;;;;;;;1.58;0.57;;;;;;;17.52;48.31;96761.75;10171627;29;20088;-75
2023/03/24 14:06:02;;;;;;;1.48;0.43;;;;;;;17.62;48.25;96749.97;10172250;29;20055;-76
2023/03/24 14:11:32;;;;;;;1.42;0.45;;;;;;;17.74;47.57;96762.31;10169501;29;20052;-75
2023/03/24 14:17:11;;;;;;;1.40;0.40;;;;;;;17.96;47.28;96748.00;10183343;29;20059;-76
2023/03/24 14:22:32;;;;;;;0.95;0.40;;;;;;;18.02;46.76;96744.59;10157730;29;20181;-75
2023/03/24 14:28:05;;;;;;;1.42;0.30;;;;;;;17.92;46.49;96744.38;10200531;29;20067;-76
2023/03/24 14:33:26;;;;;;;1.33;0.30;;;;;;;18.03;46.84;96737.56;10181070;29;20070;-76
2023/03/24 14:38:47;;;;;;;1.33;0.28;;;;;;;18.13;46.28;96737.78;10177047;29;20112;-76
2023/03/24 14:44:08;;;;;;;1.00;0.32;;;;;;;18.14;46.25;96732.84;10172195;29;20063;-77
2023/03/24 14:49:29;;;;;;;0.52;0.30;;;;;;;17.85;46.45;96731.50;10184380;29;20486;-76
2023/03/24 14:54:56;;;;;;;0.50;0.30;;;;;;;17.66;46.72;96711.31;10199335;29;20055;-76
2023/03/24 15:00:21;;;;;;;2.03;0.30;;;;;;;17.57;47.15;96729.44;10218931;29;20483;-76
2023/03/24 15:05:42;;;;;;;3.22;0.38;;;;;;;17.40;47.24;96736.78;10213500;29;20040;-76
2023/03/24 15:11:04;;;;;;;0.88;0.32;;;;;;;17.21;47.78;96717.97;10206679;29;20047;-76
2023/03/24 15:16:29;;;;;;;1.00;0.30;;;;;;;17.41;48.11;96710.00;10179718;29;20075;-76
2023/03/24 15:21:59;;;;;;;1.52;0.43;;;;;;;17.67;48.00;96695.81;10190822;29;20051;-76
2023/03/24 15:27:25;;;;;;;1.00;0.30;;;;;;;17.76;47.56;96681.88;10177253;29;20044;-76
2023/03/24 15:32:48;;;;;;;0.70;0.28;;;;;;;17.69;47.96;96672.56;10176911;29;20414;-76
2023/03/24 15:38:28;;;;;;;1.73;0.40;;;;;;;17.69;47.94;96683.84;10190488;29;20063;-76
2023/03/24 15:43:50;;;;;;;2.35;0.30;;;;;;;17.59;47.88;96669.50;10184678;29;20051;-76
2023/03/24 15:49:34;;;;;;;1.63;0.80;;;;;;;17.33;48.56;96678.78;10199015;28;20048;-76
2023/03/24 15:55:17;;;;;;;2.00;0.40;;;;;;;17.26;49.23;96688.47;10177428;29;20067;-77
2023/03/24 16:00:38;;;;;;;2.92;0.68;;;;;;;17.14;49.42;96682.53;10192539;29;20051;-76
2023/03/24 16:05:59;;;;;;;1.42;0.63;;;;;;;17.11;50.26;96672.59;10175745;29;20070;-75
2023/03/24 16:11:56;;;;;;;1.58;0.50;;;;;;;17.03;50.89;96663.94;10183075;29;20055;-78
2023/03/24 16:18:00;;;;;;;2.80;0.70;;;;;;;16.76;52.76;96673.81;10194882;29;20044;-77
2023/03/24 16:24:01;;;;;;;1.67;0.60;;;;;;;16.50;53.47;96687.84;10212584;29;20498;-77
2023/03/24 16:29:51;;;;;;;1.10;0.60;;;;;;;16.16;55.29;96727.75;10191046;29;20055;-76
2023/03/24 16:36:16;;;;;;;3.55;1.08;;;;;;;15.86;56.97;96743.72;10178693;29;20048;-78
2023/03/24 16:43:08;;;;;;;2.08;1.10;;;;;;;15.55;59.34;96742.75;10204145;29;20051;-77
2023/03/24 16:49:34;;;;;;;3.30;1.40;;;;;;;15.23;62.49;96753.63;10213119;29;20055;-78
2023/03/24 16:55:34;;;;;;;1.58;0.85;;;;;;;15.05;62.85;96779.00;10214016;29;20067;-78
2023/03/24 17:00:57;;;;;;;3.17;0.40;;;;;;;14.84;61.48;96794.44;10198055;29;20040;-77
2023/03/24 17:06:53;;;;;;;2.15;0.70;;;;;;;14.52;62.23;96801.69;10212614;29;20048;-78
2023/03/24 17:12:22;;;;;;;1.33;0.57;;;;;;;14.36;62.79;96804.59;10206170;29;20058;-77
2023/03/24 17:18:13;;;;;;;1.05;0.43;;;;;;;14.24;62.39;96798.53;10202253;29;20055;-78
2023/03/24 17:24:03;;;;;;;1.83;0.88;;;;;;;14.19;62.39;96799.75;10201293;29;20047;-76
2023/03/24 17:29:55;;;;;;;3.03;0.90;;;;;;;14.11;62.64;96793.81;10201437;29;20435;-77
2023/03/24 17:35:17;;;;;;;;;;;;;;;14.01;63.85;96806.09;10190700;29;20046;-78
2023/03/24 17:40:47;;;;;;;3.30;1.10;;;;;;;13.92;63.30;96795.91;10204614;29;20357;-77
2023/03/24 17:46:09;;;;;;;4.65;1.65;;;;;;;13.90;63.68;96798.63;10202735;29;20059;-78
2023/03/24 17:51:58;;;;;;;2.17;1.02;;;;;;;13.88;63.66;96792.94;10200468;29;20063;-76
2023/03/24 17:57:18;;;;;;;1.80;0.93;;;;;;;13.88;63.90;96798.53;10194687;29;20089;-76
2023/03/24 18:02:40;;;;;;;2.33;0.95;;;;;;;13.90;64.14;96781.81;10170429;29;20054;-75
2023/03/24 18:08:09;;;;;;;4.15;1.80;;;;;;;13.91;65.03;96788.84;10170091;29;20072;-76
2023/03/24 18:13:31;;;;;;;4.95;2.40;;;;;;;13.87;65.04;96787.97;10185898;29;20467;-76
2023/03/24 18:19:21;;;;;;;3.13;1.92;;;;;;;13.76;65.50;96784.03;10206534;29;20056;-76
2023/03/24 18:24:42;;;;;;;5.82;2.72;;;;;;;13.67;66.25;96811.03;10211732;29;20040;-76
2023/03/24 18:30:05;;;;;;;2.17;1.20;;;;;;;13.64;65.58;96815.13;10171119;29;20044;-75
2023/03/24 18:35:28;;;;;;;2.20;0.90;;;;;;;13.61;65.93;96818.50;10183819;29;20056;-76
2023/03/24 18:41:01;;;;;;;1.77;0.98;;;;;;;13.57;65.83;96807.09;10199277;29;20067;-77
2023/03/24 18:46:24;;;;;;;2.80;1.25;;;;;;;13.46;65.06;96803.88;10186987;29;20515;-76
2023/03/24 18:52:16;;;;;;;1.85;1.00;;;;;;;13.40;64.69;96811.31;10197140;29;20059;-76
2023/03/24 18:58:08;;;;;;;3.55;1.27;;;;;;;13.34;64.15;96808.28;10195076;29;20059;-75
2023/03/24 19:03:29;;;;;;;2.17;1.00;;;;;;;13.36;63.05;96822.38;10183327;29;20047;-75
2023/03/24 19:08:50;;;;;;;1.40;0.80;;;;;;;13.39;61.32;96818.28;10183243;29;20108;-76
2023/03/24 19:14:11;;;;;;;2.05;0.65;;;;;;;13.41;61.69;96852.75;10194947;29;20051;-76
2023/03/24 19:19:34;;;;;;;2.33;1.15;;;;;;;13.40;61.03;96856.16;10180424;29;20051;-76
2023/03/24 19:24:55;;;;;;;2.35;1.00;;;;;;;13.35;60.73;96855.28;10192573;29;20070;-76
2023/03/24 19:30:17;;;;;;;2.30;0.93;;;;;;;13.35;61.33;96855.28;10166536;29;20047;-76
2023/03/24 19:35:48;;;;;;;1.85;0.45;;;;;;;13.26;60.16;96847.16;10169078;29;20044;-76
2023/03/24 19:41:11;;;;;;;0.77;0.50;;;;;;;13.18;60.38;96865.03;10178670;29;20482;-77
2023/03/24 19:46:32;;;;;;;1.25;0.50;;;;;;;13.18;60.16;96865.03;10179435;29;20043;-76
2023/03/24 19:51:54;;;;;;;2.50;0.70;;;;;;;13.09;59.88;96870.91;10191829;29;20051;-77
2023/03/24 19:57:15;;;;;;;2.08;0.63;;;;;;;12.98;59.75;96878.16;10174957;29;20088;-75
2023/03/24 20:02:36;;;;;;;2.67;0.73;;;;;;;12.89;60.19;96865.88;10179307;29;20454;-76
2023/03/24 20:07:59;;;;;;;1.65;0.57;;;;;;;12.87;60.14;96882.59;10191221;29;20379;-75
2023/03/24 20:13:27;;;;;;;1.75;0.40;;;;;;;12.87;59.96;96881.88;10179567;29;20095;-77
2023/03/24 20:18:48;;;;;;;1.67;0.40;;;;;;;12.84;60.12;96877.53;10178171;29;20071;-75
2023/03/24 20:24:08;;;;;;;1.63;0.50;;;;;;;12.82;60.35;96883.03;10190023;29;20069;-75
2023/03/24 20:29:29;;;;;;;2.55;0.60;;;;;;;12.72;60.29;96888.19;10163041;29;20051;-76
2023/03/24 20:34:51;;;;;;;2.00;0.82;;;;;;;12.56;60.34;96888.19;10176806;29;20055;-76
2023/03/24 20:40:11;;;;;;;2.70;0.63;;;;;;;12.47;60.67;96877.97;10178872;29;20438;-76
2023/03/24 20:45:32;;;;;;;2.40;0.68;;;;;;;12.45;60.85;96886.25;10191725;29;20475;-76
2023/03/24 20:50:53;;;;;;;2.17;0.88;;;;;;;12.42;61.02;96890.31;10164536;29;20071;-76
2023/03/24 20:56:15;;;;;;;2.35;0.77;;;;;;;12.31;61.04;96895.44;10177169;29;20048;-75
2023/03/24 21:01:36;;;;;;;2.45;0.68;;;;;;;12.22;61.75;96890.06;10176447;29;20051;-75
2023/03/24 21:06:57;;;;;;;3.65;0.80;;;;;;;12.15;61.46;96894.66;10187536;29;20099;-75
2023/03/24 21:12:18;;;;;;;1.65;0.73;;;;;;;12.07;61.66;96911.06;10187074;29;20489;-75
2023/03/24 21:17:39;;;;;;;3.92;0.50;;;;;;;12.03;62.12;96913.66;10160579;29;20518;-76
2023/03/24 21:23:02;;;;;;;1.35;0.60;;;;;;;12.00;62.10;96912.13;10184200;29;20110;-76
2023/03/24 21:28:26;;;;;;;2.30;0.75;;;;;;;11.95;62.39;96902.06;10184540;29;20043;-76
2023/03/24 21:33:48;;;;;;;2.30;1.00;;;;;;;11.93;62.98;96913.16;10172194;29;20380;-76
2023/03/24 21:39:10;;;;;;;2.08;0.80;;;;;;;11.97;63.23;96927.38;10171466;29;20043;-75
2023/03/24 21:44:33;;;;;;;1.52;0.85;;;;;;;12.01;63.82;96928.28;10169949;29;20044;-75
2023/03/24 21:49:57;;;;;;;3.80;0.68;;;;;;;11.95;64.29;96932.84;10188090;29;20067;-75
2023/03/24 21:55:19;;;;;;;2.50;0.80;;;;;;;11.89;64.47;96936.06;10194557;29;20071;-75
2023/03/24 22:00:40;;;;;;;1.58;0.60;;;;;;;11.82;64.42;96922.41;10193622;29;20079;-75
2023/03/24 22:06:00;;;;;;;2.30;0.90;;;;;;;11.73;64.98;96933.16;10206426;29;20051;-75
2023/03/24 22:11:21;;;;;;;2.28;0.80;;;;;;;11.73;64.64;96926.84;10193146;29;20048;-75
2023/03/24 22:16:42;;;;;;;2.58;0.90;;;;;;;11.66;65.13;96920.22;10179601;29;20368;-75
2023/03/24 22:22:03;;;;;;;3.83;1.00;;;;;;;11.62;65.57;96913.72;10192634;29;20123;-76
2023/03/24 22:27:24;;;;;;;2.70;0.70;;;;;;;11.55;65.57;96918.25;10205954;29;20509;-75
2023/03/24 22:32:45;;;;;;;2.75;0.70;;;;;;;11.49;65.57;96920.78;10205935;29;20102;-76
2023/03/24 22:38:06;;;;;;;2.22;0.95;;;;;;;11.40;66.20;96919.63;10192953;29;20482;-75
2023/03/24 22:43:27;;;;;;;2.58;0.80;;;;;;;11.37;66.22;96922.91;10180048;29;20054;-75
2023/03/24 22:48:48;;;;;;;2.88;0.75;;;;;;;11.33;66.20;96906.69;10193186;29;20079;-75
2023/03/24 22:54:09;;;;;;;1.52;0.50;;;;;;;11.29;65.78;96902.94;10180266;29;20443;-75
2023/03/24 22:59:31;;;;;;;2.30;0.70;;;;;;;11.26;66.05;96910.50;10168220;29;20056;-75
2023/03/24 23:04:52;;;;;;;2.60;0.93;;;;;;;11.26;65.87;96918.16;10209162;29;20102;-75
2023/03/24 23:10:14;;;;;;;2.67;0.88;;;;;;;11.23;66.01;96928.53;10191473;29;20114;-75
2023/03/24 23:15:36;;;;;;;2.78;0.80;;;;;;;11.18;66.04;96919.19;10189819;29;20070;-76
2023/03/24 23:21:06;;;;;;;1.95;0.60;;;;;;;11.14;66.16;96902.22;10177103;29;20050;-75
2023/03/24 23:26:28;;;;;;;2.17;0.95;;;;;;;11.07;65.93;96906.03;10190504;29;20043;-75
2023/03/24 23:31:49;;;;;;;1.63;0.85;;;;;;;11.01;66.14;96907.81;10176681;29;20063;-76
2023/03/24 23:37:10;;;;;;;3.22;0.90;;;;;;;10.98;65.91;96923.00;10189368;29;20517;-75
2023/03/24 23:42:39;;;;;;;4.55;0.90;;;;;;;10.92;66.21;96923.41;10188509;29;20119;-75
2023/03/24 23:48:00;;;;;;;4.47;0.73;;;;;;;10.88;66.09;96912.03;10176302;29;20039;-75
2023/03/24 23:53:21;;;;;;;2.22;0.85;;;;;;;10.78;66.22;96909.41;10175675;29;20047;-75
2023/03/24 23:58:41;;;;;;;2.20;0.70;;;;;;;10.79;66.09;96901.75;10175708;29;20071;-75
